sensor_id;sensor_type;location;lat;lon;timestamp;P1;durP1;ratioP1;P2;durP2;ratioP2
16436;SDS011;8328;52.206;21.006;2022-12-18T00:00:59;24.90;;;12.77;;
16436;SDS011;8328;52.206;21.006;2022-12-18T00:03:28;25.20;;;11.85;;
16436;SDS011;8328;52.206;21.006;2022-12-18T00:05:54;28.23;;;13.03;;
16436;SDS011;8328;52.206;21.006;2022-12-18T00:08:20;24.95;;;9.77;;
16436;SDS011;8328;52.206;21.006;2022-12-18T00:10:45;22.70;;;10.73;;
16436;SDS011;8328;52.206;21.006;2022-12-18T00:13:12;23.38;;;13.20;;
16436;SDS011;8328;52.206;21.006;2022-12-18T00:15:38;31.07;;;15.07;;
16436;SDS011;8328;52.206;21.006;2022-12-18T00:18:04;26.88;;;11.63;;
16436;SDS011;8328;52.206;21.006;2022-12-18T00:20:31;31.10;;;14.57;;
16436;SDS011;8328;52.206;21.006;2022-12-18T00:23:00;27.55;;;15.05;;
16436;SDS011;8328;52.206;21.006;2022-12-18T00:25:26;30.73;;;16.63;;
16436;SDS011;8328;52.206;21.006;2022-12-18T00:27:52;32.88;;;16.00;;
16436;SDS011;8328;52.206;21.006;2022-12-18T00:30:18;31.20;;;15.60;;
16436;SDS011;8328;52.206;21.006;2022-12-18T00:32:44;30.85;;;14.82;;
16436;SDS011;8328;52.206;21.006;2022-12-18T00:35:10;25.63;;;12.70;;
16436;SDS011;8328;52.206;21.006;2022-12-18T00:37:36;35.65;;;17.35;;
16436;SDS011;8328;52.206;21.006;2022-12-18T00:40:02;31.00;;;15.90;;
16436;SDS011;8328;52.206;21.006;2022-12-18T00:42:28;25.80;;;13.38;;
16436;SDS011;8328;52.206;21.006;2022-12-18T00:45:12;35.45;;;15.15;;
16436;SDS011;8328;52.206;21.006;2022-12-18T00:47:39;29.00;;;14.43;;
16436;SDS011;8328;52.206;21.006;2022-12-18T00:50:05;24.25;;;11.98;;
16436;SDS011;8328;52.206;21.006;2022-12-18T00:52:31;32.45;;;15.88;;
16436;SDS011;8328;52.206;21.006;2022-12-18T00:54:57;30.40;;;16.13;;
16436;SDS011;8328;52.206;21.006;2022-12-18T00:57:23;31.83;;;14.85;;
16436;SDS011;8328;52.206;21.006;2022-12-18T00:59:49;35.50;;;17.33;;
16436;SDS011;8328;52.206;21.006;2022-12-18T01:02:15;31.97;;;17.10;;
16436;SDS011;8328;52.206;21.006;2022-12-18T01:04:41;32.63;;;16.80;;
16436;SDS011;8328;52.206;21.006;2022-12-18T01:07:06;35.07;;;16.70;;
16436;SDS011;8328;52.206;21.006;2022-12-18T01:09:32;29.20;;;14.63;;
16436;SDS011;8328;52.206;21.006;2022-12-18T01:11:59;31.48;;;16.17;;
16436;SDS011;8328;52.206;21.006;2022-12-18T01:14:25;31.67;;;17.63;;
16436;SDS011;8328;52.206;21.006;2022-12-18T01:16:51;22.10;;;10.70;;
16436;SDS011;8328;52.206;21.006;2022-12-18T01:19:17;30.55;;;14.43;;
16436;SDS011;8328;52.206;21.006;2022-12-18T01:21:43;15.47;;;6.57;;
16436;SDS011;8328;52.206;21.006;2022-12-18T01:24:09;30.52;;;14.25;;
16436;SDS011;8328;52.206;21.006;2022-12-18T01:26:37;31.92;;;15.57;;
16436;SDS011;8328;52.206;21.006;2022-12-18T01:29:03;25.70;;;12.40;;
16436;SDS011;8328;52.206;21.006;2022-12-18T01:31:30;29.13;;;14.55;;
16436;SDS011;8328;52.206;21.006;2022-12-18T01:33:57;30.13;;;15.43;;
16436;SDS011;8328;52.206;21.006;2022-12-18T01:36:33;25.48;;;12.25;;
16436;SDS011;8328;52.206;21.006;2022-12-18T01:39:01;31.65;;;15.80;;
16436;SDS011;8328;52.206;21.006;2022-12-18T01:41:31;30.83;;;15.40;;
16436;SDS011;8328;52.206;21.006;2022-12-18T01:49:46;22.35;;;9.68;;
16436;SDS011;8328;52.206;21.006;2022-12-18T01:52:12;29.73;;;15.30;;
16436;SDS011;8328;52.206;21.006;2022-12-18T01:54:38;28.23;;;14.85;;
16436;SDS011;8328;52.206;21.006;2022-12-18T01:57:04;28.33;;;13.73;;
16436;SDS011;8328;52.206;21.006;2022-12-18T01:59:33;31.13;;;14.85;;
16436;SDS011;8328;52.206;21.006;2022-12-18T02:02:02;28.10;;;12.63;;
16436;SDS011;8328;52.206;21.006;2022-12-18T02:04:28;29.08;;;13.57;;
16436;SDS011;8328;52.206;21.006;2022-12-18T02:09:28;32.83;;;13.98;;
16436;SDS011;8328;52.206;21.006;2022-12-18T02:12:42;24.38;;;10.70;;
16436;SDS011;8328;52.206;21.006;2022-12-18T02:15:19;25.48;;;12.02;;
16436;SDS011;8328;52.206;21.006;2022-12-18T02:17:55;25.00;;;10.10;;
16436;SDS011;8328;52.206;21.006;2022-12-18T02:20:38;31.52;;;15.40;;
16436;SDS011;8328;52.206;21.006;2022-12-18T02:26:17;27.42;;;12.90;;
16436;SDS011;8328;52.206;21.006;2022-12-18T02:28:56;23.33;;;10.38;;
16436;SDS011;8328;52.206;21.006;2022-12-18T02:31:25;33.65;;;15.55;;
16436;SDS011;8328;52.206;21.006;2022-12-18T02:33:56;29.60;;;13.48;;
16436;SDS011;8328;52.206;21.006;2022-12-18T02:36:29;33.30;;;15.90;;
16436;SDS011;8328;52.206;21.006;2022-12-18T02:39:01;20.60;;;9.65;;
16436;SDS011;8328;52.206;21.006;2022-12-18T02:41:28;19.85;;;9.60;;
16436;SDS011;8328;52.206;21.006;2022-12-18T02:43:57;28.45;;;11.93;;
16436;SDS011;8328;52.206;21.006;2022-12-18T02:49:31;31.15;;;14.68;;
16436;SDS011;8328;52.206;21.006;2022-12-18T03:03:31;29.13;;;14.75;;
16436;SDS011;8328;52.206;21.006;2022-12-18T03:06:35;31.85;;;16.15;;
16436;SDS011;8328;52.206;21.006;2022-12-18T03:09:11;39.65;;;17.27;;
16436;SDS011;8328;52.206;21.006;2022-12-18T03:11:41;23.02;;;10.20;;
16436;SDS011;8328;52.206;21.006;2022-12-18T03:14:30;27.10;;;12.20;;
16436;SDS011;8328;52.206;21.006;2022-12-18T03:17:02;32.53;;;14.43;;
16436;SDS011;8328;52.206;21.006;2022-12-18T03:19:34;31.33;;;15.73;;
16436;SDS011;8328;52.206;21.006;2022-12-18T03:22:01;33.75;;;16.30;;
16436;SDS011;8328;52.206;21.006;2022-12-18T03:24:29;28.27;;;13.32;;
16436;SDS011;8328;52.206;21.006;2022-12-18T03:26:58;26.23;;;12.13;;
16436;SDS011;8328;52.206;21.006;2022-12-18T03:29:36;25.95;;;9.90;;
16436;SDS011;8328;52.206;21.006;2022-12-18T03:32:09;21.67;;;9.82;;
16436;SDS011;8328;52.206;21.006;2022-12-18T03:34:38;28.08;;;12.20;;
16436;SDS011;8328;52.206;21.006;2022-12-18T03:37:07;18.90;;;9.30;;
16436;SDS011;8328;52.206;21.006;2022-12-18T03:39:33;33.70;;;15.65;;
16436;SDS011;8328;52.206;21.006;2022-12-18T03:47:37;36.22;;;15.45;;
16436;SDS011;8328;52.206;21.006;2022-12-18T03:52:59;31.90;;;13.88;;
16436;SDS011;8328;52.206;21.006;2022-12-18T03:55:45;34.05;;;15.13;;
16436;SDS011;8328;52.206;21.006;2022-12-18T03:58:13;31.05;;;13.25;;
16436;SDS011;8328;52.206;21.006;2022-12-18T04:00:43;32.70;;;14.43;;
16436;SDS011;8328;52.206;21.006;2022-12-18T04:03:11;28.17;;;12.70;;
16436;SDS011;8328;52.206;21.006;2022-12-18T04:05:38;28.88;;;13.68;;
16436;SDS011;8328;52.206;21.006;2022-12-18T04:08:07;31.70;;;14.13;;
16436;SDS011;8328;52.206;21.006;2022-12-18T04:10:34;36.72;;;14.60;;
16436;SDS011;8328;52.206;21.006;2022-12-18T04:13:00;26.70;;;11.95;;
16436;SDS011;8328;52.206;21.006;2022-12-18T04:15:26;28.67;;;13.18;;
16436;SDS011;8328;52.206;21.006;2022-12-18T04:17:52;32.33;;;13.98;;
16436;SDS011;8328;52.206;21.006;2022-12-18T04:20:18;23.40;;;11.77;;
16436;SDS011;8328;52.206;21.006;2022-12-18T04:22:44;29.15;;;13.63;;
16436;SDS011;8328;52.206;21.006;2022-12-18T04:25:10;20.47;;;9.60;;
16436;SDS011;8328;52.206;21.006;2022-12-18T04:27:36;24.67;;;11.47;;
16436;SDS011;8328;52.206;21.006;2022-12-18T04:30:03;26.33;;;13.00;;
16436;SDS011;8328;52.206;21.006;2022-12-18T04:32:29;27.55;;;12.45;;
16436;SDS011;8328;52.206;21.006;2022-12-18T04:34:56;24.55;;;10.18;;
16436;SDS011;8328;52.206;21.006;2022-12-18T04:37:22;25.15;;;10.65;;
16436;SDS011;8328;52.206;21.006;2022-12-18T04:39:48;24.00;;;10.10;;
16436;SDS011;8328;52.206;21.006;2022-12-18T04:42:14;27.52;;;11.88;;
16436;SDS011;8328;52.206;21.006;2022-12-18T04:44:40;19.45;;;8.02;;
16436;SDS011;8328;52.206;21.006;2022-12-18T04:47:06;24.17;;;11.38;;
16436;SDS011;8328;52.206;21.006;2022-12-18T04:49:32;24.23;;;11.85;;
16436;SDS011;8328;52.206;21.006;2022-12-18T04:51:59;26.05;;;12.52;;
16436;SDS011;8328;52.206;21.006;2022-12-18T04:54:25;30.77;;;13.07;;
16436;SDS011;8328;52.206;21.006;2022-12-18T04:56:51;29.03;;;12.77;;
16436;SDS011;8328;52.206;21.006;2022-12-18T04:59:19;18.83;;;7.95;;
16436;SDS011;8328;52.206;21.006;2022-12-18T05:01:45;25.83;;;12.27;;
16436;SDS011;8328;52.206;21.006;2022-12-18T05:04:14;28.10;;;11.85;;
16436;SDS011;8328;52.206;21.006;2022-12-18T05:06:42;24.15;;;10.68;;
16436;SDS011;8328;52.206;21.006;2022-12-18T05:09:08;28.42;;;12.38;;
16436;SDS011;8328;52.206;21.006;2022-12-18T05:11:34;26.43;;;12.97;;
16436;SDS011;8328;52.206;21.006;2022-12-18T05:14:01;22.23;;;9.63;;
16436;SDS011;8328;52.206;21.006;2022-12-18T05:16:30;28.70;;;13.48;;
16436;SDS011;8328;52.206;21.006;2022-12-18T05:18:56;25.58;;;11.50;;
16436;SDS011;8328;52.206;21.006;2022-12-18T05:21:22;16.33;;;5.78;;
16436;SDS011;8328;52.206;21.006;2022-12-18T05:23:54;25.75;;;12.77;;
16436;SDS011;8328;52.206;21.006;2022-12-18T05:26:20;26.08;;;8.70;;
16436;SDS011;8328;52.206;21.006;2022-12-18T05:28:47;23.27;;;10.27;;
16436;SDS011;8328;52.206;21.006;2022-12-18T05:31:16;17.52;;;7.78;;
16436;SDS011;8328;52.206;21.006;2022-12-18T05:33:43;22.25;;;8.18;;
16436;SDS011;8328;52.206;21.006;2022-12-18T05:36:09;26.85;;;10.90;;
16436;SDS011;8328;52.206;21.006;2022-12-18T05:38:38;11.25;;;6.68;;
16436;SDS011;8328;52.206;21.006;2022-12-18T05:41:05;35.95;;;14.75;;
16436;SDS011;8328;52.206;21.006;2022-12-18T05:43:33;31.27;;;10.57;;
16436;SDS011;8328;52.206;21.006;2022-12-18T05:46:05;31.30;;;12.57;;
16436;SDS011;8328;52.206;21.006;2022-12-18T05:48:33;13.93;;;6.90;;
16436;SDS011;8328;52.206;21.006;2022-12-18T05:51:06;26.40;;;11.55;;
16436;SDS011;8328;52.206;21.006;2022-12-18T05:53:37;31.83;;;14.30;;
16436;SDS011;8328;52.206;21.006;2022-12-18T05:56:05;35.65;;;15.80;;
16436;SDS011;8328;52.206;21.006;2022-12-18T05:58:35;36.17;;;15.35;;
16436;SDS011;8328;52.206;21.006;2022-12-18T06:01:12;38.72;;;14.70;;
16436;SDS011;8328;52.206;21.006;2022-12-18T06:03:47;38.65;;;16.95;;
16436;SDS011;8328;52.206;21.006;2022-12-18T06:06:18;41.42;;;16.20;;
16436;SDS011;8328;52.206;21.006;2022-12-18T06:08:47;33.65;;;12.50;;
16436;SDS011;8328;52.206;21.006;2022-12-18T06:11:16;36.97;;;16.08;;
16436;SDS011;8328;52.206;21.006;2022-12-18T06:13:44;40.58;;;16.70;;
16436;SDS011;8328;52.206;21.006;2022-12-18T06:16:10;40.63;;;14.50;;
16436;SDS011;8328;52.206;21.006;2022-12-18T06:18:36;37.08;;;18.02;;
16436;SDS011;8328;52.206;21.006;2022-12-18T06:21:02;39.08;;;15.80;;
16436;SDS011;8328;52.206;21.006;2022-12-18T06:23:28;28.70;;;11.23;;
16436;SDS011;8328;52.206;21.006;2022-12-18T06:25:54;19.93;;;8.77;;
16436;SDS011;8328;52.206;21.006;2022-12-18T06:28:21;29.50;;;10.77;;
16436;SDS011;8328;52.206;21.006;2022-12-18T06:30:47;29.17;;;11.93;;
16436;SDS011;8328;52.206;21.006;2022-12-18T06:33:13;28.30;;;11.13;;
16436;SDS011;8328;52.206;21.006;2022-12-18T06:35:40;32.50;;;13.40;;
16436;SDS011;8328;52.206;21.006;2022-12-18T06:38:12;37.35;;;14.55;;
16436;SDS011;8328;52.206;21.006;2022-12-18T06:40:38;26.55;;;9.85;;
16436;SDS011;8328;52.206;21.006;2022-12-18T06:43:04;37.47;;;16.15;;
16436;SDS011;8328;52.206;21.006;2022-12-18T06:45:31;31.63;;;11.95;;
16436;SDS011;8328;52.206;21.006;2022-12-18T06:47:57;25.70;;;9.75;;
16436;SDS011;8328;52.206;21.006;2022-12-18T06:50:34;40.83;;;16.50;;
16436;SDS011;8328;52.206;21.006;2022-12-18T06:53:09;32.17;;;13.93;;
16436;SDS011;8328;52.206;21.006;2022-12-18T06:55:38;42.63;;;17.40;;
16436;SDS011;8328;52.206;21.006;2022-12-18T06:58:04;41.15;;;15.57;;
16436;SDS011;8328;52.206;21.006;2022-12-18T07:00:34;40.45;;;15.95;;
16436;SDS011;8328;52.206;21.006;2022-12-18T07:03:00;40.80;;;17.42;;
16436;SDS011;8328;52.206;21.006;2022-12-18T07:05:26;38.88;;;16.00;;
16436;SDS011;8328;52.206;21.006;2022-12-18T07:07:58;49.07;;;19.27;;
16436;SDS011;8328;52.206;21.006;2022-12-18T07:10:24;40.42;;;18.40;;
16436;SDS011;8328;52.206;21.006;2022-12-18T07:12:50;42.65;;;20.42;;
16436;SDS011;8328;52.206;21.006;2022-12-18T07:15:16;41.33;;;16.50;;
16436;SDS011;8328;52.206;21.006;2022-12-18T07:17:43;42.20;;;18.10;;
16436;SDS011;8328;52.206;21.006;2022-12-18T07:20:09;39.33;;;16.10;;
16436;SDS011;8328;52.206;21.006;2022-12-18T07:22:35;37.30;;;15.00;;
16436;SDS011;8328;52.206;21.006;2022-12-18T07:25:01;40.05;;;18.13;;
16436;SDS011;8328;52.206;21.006;2022-12-18T07:27:30;41.50;;;17.08;;
16436;SDS011;8328;52.206;21.006;2022-12-18T07:30:02;43.00;;;17.95;;
16436;SDS011;8328;52.206;21.006;2022-12-18T07:32:32;41.20;;;17.52;;
16436;SDS011;8328;52.206;21.006;2022-12-18T07:35:02;37.60;;;16.30;;
16436;SDS011;8328;52.206;21.006;2022-12-18T07:37:31;43.22;;;16.80;;
16436;SDS011;8328;52.206;21.006;2022-12-18T07:39:57;38.03;;;15.80;;
16436;SDS011;8328;52.206;21.006;2022-12-18T07:42:23;38.97;;;17.35;;
16436;SDS011;8328;52.206;21.006;2022-12-18T07:44:59;40.85;;;17.85;;
16436;SDS011;8328;52.206;21.006;2022-12-18T07:47:26;40.38;;;18.75;;
16436;SDS011;8328;52.206;21.006;2022-12-18T07:49:55;43.42;;;18.00;;
16436;SDS011;8328;52.206;21.006;2022-12-18T07:52:21;41.80;;;17.07;;
16436;SDS011;8328;52.206;21.006;2022-12-18T07:54:54;44.55;;;18.02;;
16436;SDS011;8328;52.206;21.006;2022-12-18T07:57:24;42.58;;;17.30;;
16436;SDS011;8328;52.206;21.006;2022-12-18T07:59:49;40.13;;;15.57;;
16436;SDS011;8328;52.206;21.006;2022-12-18T08:02:15;38.83;;;18.00;;
16436;SDS011;8328;52.206;21.006;2022-12-18T08:04:42;35.70;;;15.73;;
16436;SDS011;8328;52.206;21.006;2022-12-18T08:07:08;33.85;;;13.00;;
16436;SDS011;8328;52.206;21.006;2022-12-18T08:09:34;37.83;;;15.85;;
16436;SDS011;8328;52.206;21.006;2022-12-18T08:12:01;37.72;;;14.50;;
16436;SDS011;8328;52.206;21.006;2022-12-18T08:14:27;33.50;;;12.32;;
16436;SDS011;8328;52.206;21.006;2022-12-18T08:16:53;31.17;;;13.07;;
16436;SDS011;8328;52.206;21.006;2022-12-18T08:19:19;33.53;;;15.50;;
16436;SDS011;8328;52.206;21.006;2022-12-18T08:21:48;42.83;;;18.15;;
16436;SDS011;8328;52.206;21.006;2022-12-18T08:24:23;38.35;;;19.48;;
16436;SDS011;8328;52.206;21.006;2022-12-18T08:26:49;36.75;;;15.68;;
16436;SDS011;8328;52.206;21.006;2022-12-18T08:29:15;33.60;;;13.88;;
16436;SDS011;8328;52.206;21.006;2022-12-18T08:31:50;31.30;;;12.68;;
16436;SDS011;8328;52.206;21.006;2022-12-18T08:34:19;37.38;;;15.88;;
16436;SDS011;8328;52.206;21.006;2022-12-18T08:36:54;26.90;;;12.73;;
16436;SDS011;8328;52.206;21.006;2022-12-18T08:39:20;40.97;;;17.83;;
16436;SDS011;8328;52.206;21.006;2022-12-18T08:41:46;24.83;;;9.60;;
16436;SDS011;8328;52.206;21.006;2022-12-18T08:44:32;36.08;;;17.40;;
16436;SDS011;8328;52.206;21.006;2022-12-18T08:47:05;25.75;;;11.15;;
16436;SDS011;8328;52.206;21.006;2022-12-18T08:49:32;37.00;;;15.90;;
16436;SDS011;8328;52.206;21.006;2022-12-18T08:52:04;39.38;;;19.10;;
16436;SDS011;8328;52.206;21.006;2022-12-18T08:54:30;44.63;;;18.48;;
16436;SDS011;8328;52.206;21.006;2022-12-18T08:56:56;36.42;;;15.55;;
16436;SDS011;8328;52.206;21.006;2022-12-18T08:59:22;32.63;;;12.57;;
16436;SDS011;8328;52.206;21.006;2022-12-18T09:01:49;36.13;;;17.50;;
16436;SDS011;8328;52.206;21.006;2022-12-18T09:04:15;40.03;;;18.17;;
16436;SDS011;8328;52.206;21.006;2022-12-18T09:06:42;36.67;;;17.55;;
16436;SDS011;8328;52.206;21.006;2022-12-18T09:09:10;36.63;;;16.17;;
16436;SDS011;8328;52.206;21.006;2022-12-18T09:11:36;31.42;;;14.13;;
16436;SDS011;8328;52.206;21.006;2022-12-18T09:14:04;36.25;;;17.67;;
16436;SDS011;8328;52.206;21.006;2022-12-18T09:16:30;38.78;;;16.77;;
16436;SDS011;8328;52.206;21.006;2022-12-18T09:18:57;40.00;;;16.85;;
16436;SDS011;8328;52.206;21.006;2022-12-18T09:21:28;35.70;;;16.70;;
16436;SDS011;8328;52.206;21.006;2022-12-18T09:23:56;29.73;;;10.88;;
16436;SDS011;8328;52.206;21.006;2022-12-18T09:26:22;34.43;;;15.50;;
16436;SDS011;8328;52.206;21.006;2022-12-18T09:28:49;48.78;;;21.83;;
16436;SDS011;8328;52.206;21.006;2022-12-18T09:31:16;36.90;;;18.38;;
16436;SDS011;8328;52.206;21.006;2022-12-18T09:33:44;40.92;;;19.23;;
16436;SDS011;8328;52.206;21.006;2022-12-18T09:36:11;39.03;;;18.92;;
16436;SDS011;8328;52.206;21.006;2022-12-18T09:38:41;45.70;;;20.00;;
16436;SDS011;8328;52.206;21.006;2022-12-18T09:44:01;44.15;;;18.23;;
16436;SDS011;8328;52.206;21.006;2022-12-18T09:46:42;43.17;;;21.42;;
16436;SDS011;8328;52.206;21.006;2022-12-18T09:49:16;29.13;;;13.65;;
16436;SDS011;8328;52.206;21.006;2022-12-18T09:54:24;35.13;;;17.08;;
16436;SDS011;8328;52.206;21.006;2022-12-18T09:57:00;40.53;;;18.90;;
16436;SDS011;8328;52.206;21.006;2022-12-18T09:59:31;37.95;;;19.02;;
16436;SDS011;8328;52.206;21.006;2022-12-18T10:05:11;47.05;;;20.80;;
16436;SDS011;8328;52.206;21.006;2022-12-18T10:08:07;38.53;;;17.35;;
16436;SDS011;8328;52.206;21.006;2022-12-18T10:10:51;45.08;;;22.02;;
16436;SDS011;8328;52.206;21.006;2022-12-18T10:13:33;45.88;;;21.83;;
16436;SDS011;8328;52.206;21.006;2022-12-18T10:19:00;45.45;;;19.60;;
16436;SDS011;8328;52.206;21.006;2022-12-18T10:21:39;49.97;;;19.30;;
16436;SDS011;8328;52.206;21.006;2022-12-18T10:24:25;45.85;;;21.92;;
16436;SDS011;8328;52.206;21.006;2022-12-18T10:27:20;41.58;;;19.35;;
16436;SDS011;8328;52.206;21.006;2022-12-18T10:29:49;22.58;;;8.20;;
16436;SDS011;8328;52.206;21.006;2022-12-18T10:32:24;45.03;;;21.20;;
16436;SDS011;8328;52.206;21.006;2022-12-18T10:34:54;48.90;;;20.90;;
16436;SDS011;8328;52.206;21.006;2022-12-18T10:37:34;42.72;;;18.73;;
16436;SDS011;8328;52.206;21.006;2022-12-18T10:40:13;37.90;;;17.55;;
16436;SDS011;8328;52.206;21.006;2022-12-18T10:42:43;45.78;;;21.55;;
16436;SDS011;8328;52.206;21.006;2022-12-18T10:45:15;50.22;;;22.17;;
16436;SDS011;8328;52.206;21.006;2022-12-18T10:47:45;43.72;;;19.45;;
16436;SDS011;8328;52.206;21.006;2022-12-18T10:50:32;42.08;;;19.50;;
16436;SDS011;8328;52.206;21.006;2022-12-18T10:53:00;46.35;;;21.50;;
16436;SDS011;8328;52.206;21.006;2022-12-18T10:55:32;46.38;;;21.02;;
16436;SDS011;8328;52.206;21.006;2022-12-18T11:01:02;50.10;;;20.23;;
16436;SDS011;8328;52.206;21.006;2022-12-18T11:03:37;36.17;;;16.50;;
16436;SDS011;8328;52.206;21.006;2022-12-18T11:08:42;51.70;;;24.50;;
16436;SDS011;8328;52.206;21.006;2022-12-18T11:11:21;47.63;;;23.45;;
16436;SDS011;8328;52.206;21.006;2022-12-18T11:13:57;48.13;;;22.67;;
16436;SDS011;8328;52.206;21.006;2022-12-18T11:16:50;49.75;;;23.08;;
16436;SDS011;8328;52.206;21.006;2022-12-18T11:19:26;50.75;;;22.65;;
16436;SDS011;8328;52.206;21.006;2022-12-18T11:21:58;44.45;;;22.75;;
16436;SDS011;8328;52.206;21.006;2022-12-18T11:24:32;48.08;;;23.90;;
16436;SDS011;8328;52.206;21.006;2022-12-18T11:27:01;46.10;;;21.15;;
16436;SDS011;8328;52.206;21.006;2022-12-18T11:29:33;48.47;;;22.65;;
16436;SDS011;8328;52.206;21.006;2022-12-18T11:34:49;44.78;;;21.70;;
16436;SDS011;8328;52.206;21.006;2022-12-18T11:37:20;46.30;;;20.20;;
16436;SDS011;8328;52.206;21.006;2022-12-18T11:39:50;50.47;;;24.42;;
16436;SDS011;8328;52.206;21.006;2022-12-18T11:50:16;54.67;;;23.98;;
16436;SDS011;8328;52.206;21.006;2022-12-18T11:52:50;49.83;;;22.73;;
16436;SDS011;8328;52.206;21.006;2022-12-18T11:55:31;47.73;;;23.17;;
16436;SDS011;8328;52.206;21.006;2022-12-18T12:01:16;53.22;;;24.13;;
16436;SDS011;8328;52.206;21.006;2022-12-18T12:14:32;51.07;;;23.37;;
16436;SDS011;8328;52.206;21.006;2022-12-18T12:17:18;47.35;;;22.05;;
16436;SDS011;8328;52.206;21.006;2022-12-18T12:22:49;48.22;;;23.77;;
16436;SDS011;8328;52.206;21.006;2022-12-18T12:39:34;48.42;;;23.38;;
16436;SDS011;8328;52.206;21.006;2022-12-18T12:42:05;51.10;;;25.02;;
16436;SDS011;8328;52.206;21.006;2022-12-18T12:44:58;48.33;;;23.67;;
16436;SDS011;8328;52.206;21.006;2022-12-18T12:47:31;47.92;;;24.15;;
16436;SDS011;8328;52.206;21.006;2022-12-18T12:50:02;47.00;;;23.35;;
16436;SDS011;8328;52.206;21.006;2022-12-18T12:52:43;52.40;;;24.80;;
16436;SDS011;8328;52.206;21.006;2022-12-18T12:55:19;52.70;;;24.05;;
16436;SDS011;8328;52.206;21.006;2022-12-18T12:58:05;50.00;;;24.33;;
16436;SDS011;8328;52.206;21.006;2022-12-18T13:06:04;48.10;;;22.52;;
16436;SDS011;8328;52.206;21.006;2022-12-18T13:08:56;49.78;;;23.83;;
16436;SDS011;8328;52.206;21.006;2022-12-18T13:11:34;51.53;;;24.52;;
16436;SDS011;8328;52.206;21.006;2022-12-18T13:14:23;46.60;;;22.83;;
16436;SDS011;8328;52.206;21.006;2022-12-18T13:20:04;41.67;;;17.63;;
16436;SDS011;8328;52.206;21.006;2022-12-18T13:22:37;47.08;;;23.70;;
16436;SDS011;8328;52.206;21.006;2022-12-18T13:28:09;49.22;;;23.90;;
16436;SDS011;8328;52.206;21.006;2022-12-18T13:30:49;45.67;;;22.05;;
16436;SDS011;8328;52.206;21.006;2022-12-18T13:38:35;40.25;;;20.17;;
16436;SDS011;8328;52.206;21.006;2022-12-18T13:43:44;49.63;;;21.88;;
16436;SDS011;8328;52.206;21.006;2022-12-18T13:46:29;43.03;;;19.45;;
16436;SDS011;8328;52.206;21.006;2022-12-18T13:51:39;45.08;;;20.45;;
16436;SDS011;8328;52.206;21.006;2022-12-18T13:56:55;47.70;;;22.17;;
16436;SDS011;8328;52.206;21.006;2022-12-18T13:59:22;49.03;;;23.80;;
16436;SDS011;8328;52.206;21.006;2022-12-18T14:01:54;55.15;;;24.98;;
16436;SDS011;8328;52.206;21.006;2022-12-18T14:04:30;49.72;;;23.42;;
16436;SDS011;8328;52.206;21.006;2022-12-18T14:09:29;43.83;;;20.88;;
16436;SDS011;8328;52.206;21.006;2022-12-18T14:11:59;49.63;;;22.92;;
16436;SDS011;8328;52.206;21.006;2022-12-18T14:14:45;49.45;;;22.60;;
16436;SDS011;8328;52.206;21.006;2022-12-18T14:17:16;52.05;;;23.63;;
16436;SDS011;8328;52.206;21.006;2022-12-18T14:19:46;52.00;;;22.67;;
16436;SDS011;8328;52.206;21.006;2022-12-18T14:22:15;58.13;;;25.38;;
16436;SDS011;8328;52.206;21.006;2022-12-18T14:24:46;55.15;;;25.98;;
16436;SDS011;8328;52.206;21.006;2022-12-18T14:27:19;48.20;;;21.58;;
16436;SDS011;8328;52.206;21.006;2022-12-18T14:29:47;56.65;;;26.20;;
16436;SDS011;8328;52.206;21.006;2022-12-18T14:32:14;48.73;;;24.00;;
16436;SDS011;8328;52.206;21.006;2022-12-18T14:34:45;51.65;;;25.40;;
16436;SDS011;8328;52.206;21.006;2022-12-18T14:37:15;50.28;;;24.83;;
16436;SDS011;8328;52.206;21.006;2022-12-18T14:39:59;48.50;;;24.60;;
16436;SDS011;8328;52.206;21.006;2022-12-18T14:42:26;51.95;;;24.73;;
16436;SDS011;8328;52.206;21.006;2022-12-18T14:47:56;50.53;;;23.08;;
16436;SDS011;8328;52.206;21.006;2022-12-18T14:50:22;47.93;;;23.37;;
16436;SDS011;8328;52.206;21.006;2022-12-18T14:52:48;53.00;;;24.77;;
16436;SDS011;8328;52.206;21.006;2022-12-18T14:55:16;51.00;;;22.15;;
16436;SDS011;8328;52.206;21.006;2022-12-18T14:57:44;48.95;;;23.38;;
16436;SDS011;8328;52.206;21.006;2022-12-18T15:00:17;48.88;;;21.67;;
16436;SDS011;8328;52.206;21.006;2022-12-18T15:02:55;53.13;;;25.27;;
16436;SDS011;8328;52.206;21.006;2022-12-18T15:05:27;52.17;;;24.45;;
16436;SDS011;8328;52.206;21.006;2022-12-18T15:07:56;48.05;;;23.05;;
16436;SDS011;8328;52.206;21.006;2022-12-18T15:10:25;47.10;;;22.58;;
16436;SDS011;8328;52.206;21.006;2022-12-18T15:23:12;41.25;;;18.50;;
16436;SDS011;8328;52.206;21.006;2022-12-18T15:25:54;49.33;;;21.52;;
16436;SDS011;8328;52.206;21.006;2022-12-18T15:33:26;44.08;;;21.90;;
16436;SDS011;8328;52.206;21.006;2022-12-18T15:35:56;43.40;;;22.35;;
16436;SDS011;8328;52.206;21.006;2022-12-18T15:38:23;42.05;;;20.17;;
16436;SDS011;8328;52.206;21.006;2022-12-18T15:40:48;46.23;;;23.03;;
16436;SDS011;8328;52.206;21.006;2022-12-18T15:43:14;46.53;;;22.83;;
16436;SDS011;8328;52.206;21.006;2022-12-18T15:46:11;48.75;;;22.90;;
16436;SDS011;8328;52.206;21.006;2022-12-18T15:48:39;41.95;;;20.85;;
16436;SDS011;8328;52.206;21.006;2022-12-18T15:51:15;41.03;;;20.88;;
16436;SDS011;8328;52.206;21.006;2022-12-18T15:53:50;44.95;;;21.00;;
16436;SDS011;8328;52.206;21.006;2022-12-18T15:56:19;42.78;;;21.67;;
16436;SDS011;8328;52.206;21.006;2022-12-18T15:59:07;45.83;;;21.55;;
16436;SDS011;8328;52.206;21.006;2022-12-18T16:01:39;54.08;;;25.15;;
16436;SDS011;8328;52.206;21.006;2022-12-18T16:04:08;40.58;;;20.52;;
16436;SDS011;8328;52.206;21.006;2022-12-18T16:06:36;37.88;;;19.05;;
16436;SDS011;8328;52.206;21.006;2022-12-18T16:09:02;36.30;;;18.80;;
16436;SDS011;8328;52.206;21.006;2022-12-18T16:11:28;41.53;;;19.27;;
16436;SDS011;8328;52.206;21.006;2022-12-18T16:16:47;40.83;;;20.95;;
16436;SDS011;8328;52.206;21.006;2022-12-18T16:19:18;40.97;;;20.40;;
16436;SDS011;8328;52.206;21.006;2022-12-18T16:21:43;38.17;;;19.87;;
16436;SDS011;8328;52.206;21.006;2022-12-18T16:24:17;35.40;;;18.13;;
16436;SDS011;8328;52.206;21.006;2022-12-18T16:26:44;37.65;;;18.60;;
16436;SDS011;8328;52.206;21.006;2022-12-18T16:29:10;29.03;;;12.73;;
16436;SDS011;8328;52.206;21.006;2022-12-18T16:31:36;39.80;;;19.00;;
16436;SDS011;8328;52.206;21.006;2022-12-18T16:34:22;38.08;;;19.50;;
16436;SDS011;8328;52.206;21.006;2022-12-18T16:36:51;39.88;;;18.63;;
16436;SDS011;8328;52.206;21.006;2022-12-18T16:39:19;37.83;;;18.35;;
16436;SDS011;8328;52.206;21.006;2022-12-18T16:41:48;37.92;;;18.20;;
16436;SDS011;8328;52.206;21.006;2022-12-18T16:44:15;39.92;;;18.77;;
16436;SDS011;8328;52.206;21.006;2022-12-18T16:46:41;38.65;;;18.92;;
16436;SDS011;8328;52.206;21.006;2022-12-18T16:49:10;41.78;;;19.17;;
16436;SDS011;8328;52.206;21.006;2022-12-18T16:51:37;39.78;;;18.80;;
16436;SDS011;8328;52.206;21.006;2022-12-18T16:54:03;40.47;;;19.33;;
16436;SDS011;8328;52.206;21.006;2022-12-18T16:56:29;41.17;;;20.63;;
16436;SDS011;8328;52.206;21.006;2022-12-18T16:58:56;37.72;;;18.35;;
16436;SDS011;8328;52.206;21.006;2022-12-18T17:01:23;40.92;;;18.73;;
16436;SDS011;8328;52.206;21.006;2022-12-18T17:03:51;36.20;;;18.67;;